sensor_id;sensor_type;location;lat;lon;timestamp;P1;durP1;ratioP1;P2;durP2;ratioP2
69890;SDS011;57170;43.964;21.262;2023-05-10T00:01:32;6.32;;;4.63;;
69890;SDS011;57170;43.964;21.262;2023-05-10T00:03:59;7.30;;;4.35;;
69890;SDS011;57170;43.964;21.262;2023-05-10T00:06:25;5.50;;;3.95;;
69890;SDS011;57170;43.964;21.262;2023-05-10T00:08:51;5.47;;;3.83;;
69890;SDS011;57170;43.964;21.262;2023-05-10T00:11:17;5.38;;;4.28;;
69890;SDS011;57170;43.964;21.262;2023-05-10T00:13:44;5.63;;;4.75;;
69890;SDS011;57170;43.964;21.262;2023-05-10T00:16:10;6.22;;;4.57;;
69890;SDS011;57170;43.964;21.262;2023-05-10T00:18:38;4.53;;;3.90;;
69890;SDS011;57170;43.964;21.262;2023-05-10T00:21:04;8.88;;;4.53;;
69890;SDS011;57170;43.964;21.262;2023-05-10T00:23:30;5.57;;;4.20;;
69890;SDS011;57170;43.964;21.262;2023-05-10T00:25:56;6.50;;;4.63;;
69890;SDS011;57170;43.964;21.262;2023-05-10T00:28:22;7.70;;;4.45;;
69890;SDS011;57170;43.964;21.262;2023-05-10T00:30:49;4.78;;;4.22;;
69890;SDS011;57170;43.964;21.262;2023-05-10T00:33:15;6.15;;;4.65;;
69890;SDS011;57170;43.964;21.262;2023-05-10T00:35:41;6.35;;;4.82;;
69890;SDS011;57170;43.964;21.262;2023-05-10T00:38:07;6.55;;;4.72;;
69890;SDS011;57170;43.964;21.262;2023-05-10T00:40:35;5.55;;;4.82;;
69890;SDS011;57170;43.964;21.262;2023-05-10T00:43:02;5.50;;;4.57;;
69890;SDS011;57170;43.964;21.262;2023-05-10T00:45:28;5.78;;;4.47;;
69890;SDS011;57170;43.964;21.262;2023-05-10T00:47:54;6.45;;;4.97;;
69890;SDS011;57170;43.964;21.262;2023-05-10T00:50:21;8.23;;;4.78;;
69890;SDS011;57170;43.964;21.262;2023-05-10T00:52:48;6.00;;;4.47;;
69890;SDS011;57170;43.964;21.262;2023-05-10T00:55:14;7.13;;;5.05;;
69890;SDS011;57170;43.964;21.262;2023-05-10T00:57:40;8.02;;;5.40;;
69890;SDS011;57170;43.964;21.262;2023-05-10T01:00:07;6.03;;;4.72;;
69890;SDS011;57170;43.964;21.262;2023-05-10T01:02:34;5.70;;;5.10;;
69890;SDS011;57170;43.964;21.262;2023-05-10T01:05:00;6.90;;;5.40;;
69890;SDS011;57170;43.964;21.262;2023-05-10T01:07:28;6.68;;;5.28;;
69890;SDS011;57170;43.964;21.262;2023-05-10T01:09:55;7.30;;;5.82;;
69890;SDS011;57170;43.964;21.262;2023-05-10T01:12:21;8.13;;;5.72;;
69890;SDS011;57170;43.964;21.262;2023-05-10T01:14:47;5.30;;;4.60;;
69890;SDS011;57170;43.964;21.262;2023-05-10T01:17:14;7.25;;;5.88;;
69890;SDS011;57170;43.964;21.262;2023-05-10T01:19:40;6.93;;;5.30;;
69890;SDS011;57170;43.964;21.262;2023-05-10T01:27:25;8.82;;;5.72;;
69890;SDS011;57170;43.964;21.262;2023-05-10T01:35:19;8.60;;;6.95;;
69890;SDS011;57170;43.964;21.262;2023-05-10T01:40:30;8.68;;;6.95;;
69890;SDS011;57170;43.964;21.262;2023-05-10T01:43:02;8.27;;;6.80;;
69890;SDS011;57170;43.964;21.262;2023-05-10T01:45:34;12.02;;;6.53;;
69890;SDS011;57170;43.964;21.262;2023-05-10T01:48:06;13.65;;;6.50;;
69890;SDS011;57170;43.964;21.262;2023-05-10T01:50:34;8.38;;;6.72;;
69890;SDS011;57170;43.964;21.262;2023-05-10T01:53:01;7.97;;;6.13;;
69890;SDS011;57170;43.964;21.262;2023-05-10T01:55:32;10.05;;;6.97;;
69890;SDS011;57170;43.964;21.262;2023-05-10T01:58:01;9.68;;;6.95;;
69890;SDS011;57170;43.964;21.262;2023-05-10T02:00:28;9.13;;;7.25;;
69890;SDS011;57170;43.964;21.262;2023-05-10T02:02:56;8.25;;;6.70;;
69890;SDS011;57170;43.964;21.262;2023-05-10T02:05:22;7.53;;;6.68;;
69890;SDS011;57170;43.964;21.262;2023-05-10T02:07:50;10.38;;;7.55;;
69890;SDS011;57170;43.964;21.262;2023-05-10T02:10:17;11.38;;;8.05;;
69890;SDS011;57170;43.964;21.262;2023-05-10T02:12:44;8.93;;;7.20;;
69890;SDS011;57170;43.964;21.262;2023-05-10T02:15:11;7.93;;;6.78;;
69890;SDS011;57170;43.964;21.262;2023-05-10T02:17:38;12.13;;;7.30;;
69890;SDS011;57170;43.964;21.262;2023-05-10T02:20:05;9.30;;;7.18;;
69890;SDS011;57170;43.964;21.262;2023-05-10T02:22:32;8.60;;;7.00;;
69890;SDS011;57170;43.964;21.262;2023-05-10T02:24:59;9.48;;;7.43;;
69890;SDS011;57170;43.964;21.262;2023-05-10T02:27:27;8.35;;;6.95;;
69890;SDS011;57170;43.964;21.262;2023-05-10T02:29:53;9.43;;;7.47;;
69890;SDS011;57170;43.964;21.262;2023-05-10T02:32:20;10.57;;;8.18;;
69890;SDS011;57170;43.964;21.262;2023-05-10T02:34:47;8.70;;;7.78;;
69890;SDS011;57170;43.964;21.262;2023-05-10T02:37:17;9.82;;;7.75;;
69890;SDS011;57170;43.964;21.262;2023-05-10T02:39:46;11.30;;;8.63;;
69890;SDS011;57170;43.964;21.262;2023-05-10T02:42:13;9.57;;;7.95;;
69890;SDS011;57170;43.964;21.262;2023-05-10T02:44:40;9.93;;;8.32;;
69890;SDS011;57170;43.964;21.262;2023-05-10T02:47:07;10.63;;;8.63;;
69890;SDS011;57170;43.964;21.262;2023-05-10T02:49:33;10.90;;;8.88;;
69890;SDS011;57170;43.964;21.262;2023-05-10T02:52:00;12.68;;;8.75;;
69890;SDS011;57170;43.964;21.262;2023-05-10T02:54:29;10.35;;;8.65;;
69890;SDS011;57170;43.964;21.262;2023-05-10T02:56:57;15.32;;;9.07;;
69890;SDS011;57170;43.964;21.262;2023-05-10T02:59:26;11.15;;;9.02;;
69890;SDS011;57170;43.964;21.262;2023-05-10T03:01:53;11.10;;;9.75;;
69890;SDS011;57170;43.964;21.262;2023-05-10T03:04:19;13.93;;;9.90;;
69890;SDS011;57170;43.964;21.262;2023-05-10T03:06:45;11.35;;;9.43;;
69890;SDS011;57170;43.964;21.262;2023-05-10T03:09:11;11.07;;;9.23;;
69890;SDS011;57170;43.964;21.262;2023-05-10T03:11:47;11.80;;;8.82;;
69890;SDS011;57170;43.964;21.262;2023-05-10T03:17:06;11.07;;;9.48;;
69890;SDS011;57170;43.964;21.262;2023-05-10T03:19:38;10.88;;;9.35;;
69890;SDS011;57170;43.964;21.262;2023-05-10T03:22:07;13.55;;;9.18;;
69890;SDS011;57170;43.964;21.262;2023-05-10T03:24:34;11.65;;;9.80;;
69890;SDS011;57170;43.964;21.262;2023-05-10T03:27:01;15.25;;;10.07;;
69890;SDS011;57170;43.964;21.262;2023-05-10T03:29:29;12.02;;;9.43;;
69890;SDS011;57170;43.964;21.262;2023-05-10T03:31:57;15.77;;;10.82;;
69890;SDS011;57170;43.964;21.262;2023-05-10T03:34:24;13.32;;;10.55;;
69890;SDS011;57170;43.964;21.262;2023-05-10T03:36:50;14.27;;;10.75;;
69890;SDS011;57170;43.964;21.262;2023-05-10T03:39:16;12.25;;;10.20;;
69890;SDS011;57170;43.964;21.262;2023-05-10T03:41:42;12.68;;;10.50;;
69890;SDS011;57170;43.964;21.262;2023-05-10T03:44:08;12.15;;;10.23;;
69890;SDS011;57170;43.964;21.262;2023-05-10T03:46:34;12.25;;;10.25;;
69890;SDS011;57170;43.964;21.262;2023-05-10T03:49:00;11.75;;;9.77;;
69890;SDS011;57170;43.964;21.262;2023-05-10T03:51:27;12.70;;;9.20;;
69890;SDS011;57170;43.964;21.262;2023-05-10T03:53:54;11.85;;;10.52;;
69890;SDS011;57170;43.964;21.262;2023-05-10T03:56:20;12.82;;;9.68;;
69890;SDS011;57170;43.964;21.262;2023-05-10T03:58:46;11.50;;;9.02;;
69890;SDS011;57170;43.964;21.262;2023-05-10T04:01:12;11.70;;;8.95;;
69890;SDS011;57170;43.964;21.262;2023-05-10T04:03:38;11.43;;;9.57;;
69890;SDS011;57170;43.964;21.262;2023-05-10T04:06:05;9.88;;;8.85;;
69890;SDS011;57170;43.964;21.262;2023-05-10T04:08:33;11.13;;;9.32;;
69890;SDS011;57170;43.964;21.262;2023-05-10T04:11:11;13.20;;;9.70;;
69890;SDS011;57170;43.964;21.262;2023-05-10T04:13:38;11.00;;;9.85;;
69890;SDS011;57170;43.964;21.262;2023-05-10T04:16:05;9.45;;;8.20;;
69890;SDS011;57170;43.964;21.262;2023-05-10T04:18:31;10.00;;;8.50;;
69890;SDS011;57170;43.964;21.262;2023-05-10T04:20:57;9.48;;;8.48;;
69890;SDS011;57170;43.964;21.262;2023-05-10T04:23:23;10.63;;;8.63;;
69890;SDS011;57170;43.964;21.262;2023-05-10T04:25:49;9.77;;;8.60;;
69890;SDS011;57170;43.964;21.262;2023-05-10T04:28:15;10.68;;;9.10;;
69890;SDS011;57170;43.964;21.262;2023-05-10T04:30:41;10.75;;;9.63;;
69890;SDS011;57170;43.964;21.262;2023-05-10T04:33:07;10.60;;;9.38;;
69890;SDS011;57170;43.964;21.262;2023-05-10T04:35:34;13.13;;;9.65;;
69890;SDS011;57170;43.964;21.262;2023-05-10T04:38:00;11.52;;;9.05;;
69890;SDS011;57170;43.964;21.262;2023-05-10T04:40:26;9.82;;;8.40;;
69890;SDS011;57170;43.964;21.262;2023-05-10T04:42:52;11.50;;;9.38;;
69890;SDS011;57170;43.964;21.262;2023-05-10T04:45:19;11.65;;;8.88;;
69890;SDS011;57170;43.964;21.262;2023-05-10T04:47:45;9.93;;;7.78;;
69890;SDS011;57170;43.964;21.262;2023-05-10T04:50:11;10.05;;;8.43;;
69890;SDS011;57170;43.964;21.262;2023-05-10T04:52:37;10.38;;;8.55;;
69890;SDS011;57170;43.964;21.262;2023-05-10T04:55:03;11.68;;;9.02;;
69890;SDS011;57170;43.964;21.262;2023-05-10T04:57:31;14.00;;;8.52;;
69890;SDS011;57170;43.964;21.262;2023-05-10T04:59:57;9.07;;;7.75;;
69890;SDS011;57170;43.964;21.262;2023-05-10T05:02:23;11.32;;;8.20;;
69890;SDS011;57170;43.964;21.262;2023-05-10T05:04:50;9.98;;;8.32;;
69890;SDS011;57170;43.964;21.262;2023-05-10T05:07:16;13.82;;;7.55;;
69890;SDS011;57170;43.964;21.262;2023-05-10T05:09:42;10.63;;;8.40;;
69890;SDS011;57170;43.964;21.262;2023-05-10T05:12:08;10.45;;;7.80;;
69890;SDS011;57170;43.964;21.262;2023-05-10T05:14:38;8.77;;;6.85;;
69890;SDS011;57170;43.964;21.262;2023-05-10T05:17:05;8.30;;;6.75;;
69890;SDS011;57170;43.964;21.262;2023-05-10T05:19:31;8.57;;;6.50;;
69890;SDS011;57170;43.964;21.262;2023-05-10T05:21:57;9.27;;;6.72;;
69890;SDS011;57170;43.964;21.262;2023-05-10T05:24:23;8.73;;;6.30;;
69890;SDS011;57170;43.964;21.262;2023-05-10T05:26:49;9.52;;;6.22;;
69890;SDS011;57170;43.964;21.262;2023-05-10T05:29:15;9.10;;;6.13;;
69890;SDS011;57170;43.964;21.262;2023-05-10T05:31:41;8.40;;;6.32;;
69890;SDS011;57170;43.964;21.262;2023-05-10T05:34:07;6.47;;;5.10;;
69890;SDS011;57170;43.964;21.262;2023-05-10T05:36:35;9.80;;;6.15;;
69890;SDS011;57170;43.964;21.262;2023-05-10T05:39:03;8.50;;;6.20;;
69890;SDS011;57170;43.964;21.262;2023-05-10T05:41:29;7.07;;;5.32;;
69890;SDS011;57170;43.964;21.262;2023-05-10T05:43:55;7.47;;;5.88;;
69890;SDS011;57170;43.964;21.262;2023-05-10T05:46:22;9.60;;;7.07;;
69890;SDS011;57170;43.964;21.262;2023-05-10T05:48:48;7.78;;;6.22;;
69890;SDS011;57170;43.964;21.262;2023-05-10T05:51:14;8.57;;;6.20;;
69890;SDS011;57170;43.964;21.262;2023-05-10T05:53:40;7.53;;;6.18;;
69890;SDS011;57170;43.964;21.262;2023-05-10T05:56:06;7.53;;;5.65;;
69890;SDS011;57170;43.964;21.262;2023-05-10T05:58:33;7.95;;;5.82;;
69890;SDS011;57170;43.964;21.262;2023-05-10T06:00:59;6.85;;;5.80;;
69890;SDS011;57170;43.964;21.262;2023-05-10T06:03:25;8.05;;;5.63;;
69890;SDS011;57170;43.964;21.262;2023-05-10T06:05:51;8.38;;;5.78;;
69890;SDS011;57170;43.964;21.262;2023-05-10T06:08:17;7.50;;;5.68;;
69890;SDS011;57170;43.964;21.262;2023-05-10T06:10:43;8.48;;;6.57;;
69890;SDS011;57170;43.964;21.262;2023-05-10T06:13:10;7.38;;;5.93;;
69890;SDS011;57170;43.964;21.262;2023-05-10T06:15:37;7.75;;;5.60;;
69890;SDS011;57170;43.964;21.262;2023-05-10T06:18:03;8.13;;;5.80;;
69890;SDS011;57170;43.964;21.262;2023-05-10T06:20:30;8.43;;;5.93;;
69890;SDS011;57170;43.964;21.262;2023-05-10T06:22:57;6.35;;;5.03;;
69890;SDS011;57170;43.964;21.262;2023-05-10T06:25:23;7.22;;;6.18;;
69890;SDS011;57170;43.964;21.262;2023-05-10T06:27:49;9.00;;;5.70;;
69890;SDS011;57170;43.964;21.262;2023-05-10T06:30:20;6.20;;;5.07;;
69890;SDS011;57170;43.964;21.262;2023-05-10T06:32:48;7.20;;;5.13;;
69890;SDS011;57170;43.964;21.262;2023-05-10T06:35:14;7.88;;;5.20;;
69890;SDS011;57170;43.964;21.262;2023-05-10T06:37:40;6.65;;;5.35;;
69890;SDS011;57170;43.964;21.262;2023-05-10T06:40:06;8.05;;;6.82;;
69890;SDS011;57170;43.964;21.262;2023-05-10T06:42:32;8.00;;;5.95;;
69890;SDS011;57170;43.964;21.262;2023-05-10T06:44:58;8.20;;;5.88;;
69890;SDS011;57170;43.964;21.262;2023-05-10T06:47:25;8.30;;;7.13;;
69890;SDS011;57170;43.964;21.262;2023-05-10T06:49:51;14.23;;;6.32;;
69890;SDS011;57170;43.964;21.262;2023-05-10T06:52:17;6.75;;;5.90;;
69890;SDS011;57170;43.964;21.262;2023-05-10T06:54:43;6.00;;;5.40;;
69890;SDS011;57170;43.964;21.262;2023-05-10T06:57:09;7.75;;;5.85;;
69890;SDS011;57170;43.964;21.262;2023-05-10T06:59:35;6.65;;;5.63;;
69890;SDS011;57170;43.964;21.262;2023-05-10T07:02:01;8.73;;;5.45;;
69890;SDS011;57170;43.964;21.262;2023-05-10T07:04:28;8.23;;;5.85;;
69890;SDS011;57170;43.964;21.262;2023-05-10T07:06:54;5.80;;;5.10;;
69890;SDS011;57170;43.964;21.262;2023-05-10T07:09:20;6.30;;;5.38;;
69890;SDS011;57170;43.964;21.262;2023-05-10T07:11:46;7.32;;;5.60;;
69890;SDS011;57170;43.964;21.262;2023-05-10T07:14:12;6.35;;;5.40;;
69890;SDS011;57170;43.964;21.262;2023-05-10T07:16:38;6.15;;;4.65;;
69890;SDS011;57170;43.964;21.262;2023-05-10T07:19:04;7.97;;;5.10;;
69890;SDS011;57170;43.964;21.262;2023-05-10T07:21:30;5.72;;;4.95;;
69890;SDS011;57170;43.964;21.262;2023-05-10T07:23:57;7.05;;;4.22;;
69890;SDS011;57170;43.964;21.262;2023-05-10T07:26:23;5.85;;;4.38;;
69890;SDS011;57170;43.964;21.262;2023-05-10T07:28:49;5.38;;;4.60;;
69890;SDS011;57170;43.964;21.262;2023-05-10T07:31:15;6.20;;;4.43;;
69890;SDS011;57170;43.964;21.262;2023-05-10T07:33:41;7.85;;;4.90;;
69890;SDS011;57170;43.964;21.262;2023-05-10T07:36:07;5.95;;;4.63;;
69890;SDS011;57170;43.964;21.262;2023-05-10T07:38:33;6.45;;;4.35;;
69890;SDS011;57170;43.964;21.262;2023-05-10T07:40:59;5.72;;;4.72;;
69890;SDS011;57170;43.964;21.262;2023-05-10T07:43:26;4.82;;;3.65;;
69890;SDS011;57170;43.964;21.262;2023-05-10T07:45:52;4.75;;;3.47;;
69890;SDS011;57170;43.964;21.262;2023-05-10T07:48:18;8.57;;;4.07;;
69890;SDS011;57170;43.964;21.262;2023-05-10T07:50:44;5.40;;;4.00;;
69890;SDS011;57170;43.964;21.262;2023-05-10T07:53:10;4.70;;;3.67;;
69890;SDS011;57170;43.964;21.262;2023-05-10T07:55:36;5.00;;;4.18;;
69890;SDS011;57170;43.964;21.262;2023-05-10T07:58:02;4.93;;;3.90;;
69890;SDS011;57170;43.964;21.262;2023-05-10T08:00:29;4.97;;;4.07;;
69890;SDS011;57170;43.964;21.262;2023-05-10T08:02:55;4.85;;;3.78;;
69890;SDS011;57170;43.964;21.262;2023-05-10T08:05:21;5.68;;;4.45;;
69890;SDS011;57170;43.964;21.262;2023-05-10T08:07:47;8.30;;;4.20;;
69890;SDS011;57170;43.964;21.262;2023-05-10T08:10:13;6.18;;;4.25;;
69890;SDS011;57170;43.964;21.262;2023-05-10T08:12:40;5.15;;;3.58;;
69890;SDS011;57170;43.964;21.262;2023-05-10T08:15:06;5.57;;;3.88;;
69890;SDS011;57170;43.964;21.262;2023-05-10T08:17:32;7.28;;;4.10;;
69890;SDS011;57170;43.964;21.262;2023-05-10T08:19:58;7.32;;;4.25;;
69890;SDS011;57170;43.964;21.262;2023-05-10T08:22:24;5.97;;;4.18;;
69890;SDS011;57170;43.964;21.262;2023-05-10T08:24:51;7.50;;;4.43;;
69890;SDS011;57170;43.964;21.262;2023-05-10T08:27:17;13.52;;;5.13;;
69890;SDS011;57170;43.964;21.262;2023-05-10T08:29:43;6.30;;;4.18;;
69890;SDS011;57170;43.964;21.262;2023-05-10T08:32:09;6.68;;;4.68;;
69890;SDS011;57170;43.964;21.262;2023-05-10T08:34:35;5.85;;;3.67;;
69890;SDS011;57170;43.964;21.262;2023-05-10T08:37:01;6.43;;;3.90;;
69890;SDS011;57170;43.964;21.262;2023-05-10T08:39:27;5.13;;;3.80;;
69890;SDS011;57170;43.964;21.262;2023-05-10T08:41:53;8.38;;;4.57;;
69890;SDS011;57170;43.964;21.262;2023-05-10T08:44:21;7.13;;;4.28;;
69890;SDS011;57170;43.964;21.262;2023-05-10T08:46:47;6.32;;;4.18;;
69890;SDS011;57170;43.964;21.262;2023-05-10T08:49:17;5.35;;;4.65;;
69890;SDS011;57170;43.964;21.262;2023-05-10T08:51:50;6.55;;;4.68;;
69890;SDS011;57170;43.964;21.262;2023-05-10T08:54:17;6.10;;;4.47;;
69890;SDS011;57170;43.964;21.262;2023-05-10T08:56:43;7.13;;;4.78;;
69890;SDS011;57170;43.964;21.262;2023-05-10T08:59:09;5.28;;;3.75;;
69890;SDS011;57170;43.964;21.262;2023-05-10T09:01:37;7.85;;;4.60;;
69890;SDS011;57170;43.964;21.262;2023-05-10T09:04:03;5.65;;;4.22;;
69890;SDS011;57170;43.964;21.262;2023-05-10T09:06:29;4.97;;;4.47;;
69890;SDS011;57170;43.964;21.262;2023-05-10T09:08:57;7.20;;;4.40;;
69890;SDS011;57170;43.964;21.262;2023-05-10T09:11:23;8.40;;;5.32;;
69890;SDS011;57170;43.964;21.262;2023-05-10T09:13:50;7.63;;;5.78;;
69890;SDS011;57170;43.964;21.262;2023-05-10T09:16:16;7.35;;;5.88;;
69890;SDS011;57170;43.964;21.262;2023-05-10T09:18:42;6.35;;;5.18;;
69890;SDS011;57170;43.964;21.262;2023-05-10T09:21:09;6.57;;;5.45;;
69890;SDS011;57170;43.964;21.262;2023-05-10T09:23:35;8.25;;;5.35;;
69890;SDS011;57170;43.964;21.262;2023-05-10T09:26:02;7.20;;;5.97;;
69890;SDS011;57170;43.964;21.262;2023-05-10T09:28:33;7.63;;;6.10;;
69890;SDS011;57170;43.964;21.262;2023-05-10T09:30:59;7.38;;;6.13;;
69890;SDS011;57170;43.964;21.262;2023-05-10T09:33:25;11.15;;;5.60;;
69890;SDS011;57170;43.964;21.262;2023-05-10T09:35:52;5.20;;;4.15;;
69890;SDS011;57170;43.964;21.262;2023-05-10T09:38:18;5.50;;;4.47;;
69890;SDS011;57170;43.964;21.262;2023-05-10T09:40:50;7.60;;;5.57;;
69890;SDS011;57170;43.964;21.262;2023-05-10T09:43:19;8.60;;;5.65;;
69890;SDS011;57170;43.964;21.262;2023-05-10T09:45:45;5.95;;;5.07;;
69890;SDS011;57170;43.964;21.262;2023-05-10T09:48:16;8.30;;;5.68;;
69890;SDS011;57170;43.964;21.262;2023-05-10T09:50:42;7.22;;;5.05;;
69890;SDS011;57170;43.964;21.262;2023-05-10T09:53:08;7.13;;;5.15;;
69890;SDS011;57170;43.964;21.262;2023-05-10T09:58:04;7.47;;;5.38;;
69890;SDS011;57170;43.964;21.262;2023-05-10T10:00:35;6.65;;;5.40;;
69890;SDS011;57170;43.964;21.262;2023-05-10T10:03:01;9.15;;;5.75;;
69890;SDS011;57170;43.964;21.262;2023-05-10T10:05:34;12.13;;;5.40;;
69890;SDS011;57170;43.964;21.262;2023-05-10T10:08:04;8.07;;;5.50;;
69890;SDS011;57170;43.964;21.262;2023-05-10T10:10:31;7.22;;;5.07;;
69890;SDS011;57170;43.964;21.262;2023-05-10T10:12:57;6.45;;;4.38;;
69890;SDS011;57170;43.964;21.262;2023-05-10T10:15:24;5.45;;;4.45;;
69890;SDS011;57170;43.964;21.262;2023-05-10T10:17:51;6.45;;;4.22;;
69890;SDS011;57170;43.964;21.262;2023-05-10T10:20:18;8.43;;;4.28;;
69890;SDS011;57170;43.964;21.262;2023-05-10T10:22:45;6.28;;;4.50;;
69890;SDS011;57170;43.964;21.262;2023-05-10T10:25:11;6.82;;;3.75;;
69890;SDS011;57170;43.964;21.262;2023-05-10T10:30:27;6.82;;;3.70;;
69890;SDS011;57170;43.964;21.262;2023-05-10T10:33:06;7.80;;;3.75;;
69890;SDS011;57170;43.964;21.262;2023-05-10T10:35:35;4.68;;;3.40;;
69890;SDS011;57170;43.964;21.262;2023-05-10T10:38:02;6.15;;;4.40;;
69890;SDS011;57170;43.964;21.262;2023-05-10T10:40:28;4.93;;;3.85;;
69890;SDS011;57170;43.964;21.262;2023-05-10T10:42:55;6.63;;;3.58;;
69890;SDS011;57170;43.964;21.262;2023-05-10T10:45:23;8.18;;;4.03;;
69890;SDS011;57170;43.964;21.262;2023-05-10T10:47:53;6.93;;;4.22;;
69890;SDS011;57170;43.964;21.262;2023-05-10T10:50:43;5.93;;;4.00;;
69890;SDS011;57170;43.964;21.262;2023-05-10T10:53:10;6.93;;;4.80;;
69890;SDS011;57170;43.964;21.262;2023-05-10T10:55:44;5.43;;;4.32;;
69890;SDS011;57170;43.964;21.262;2023-05-10T10:58:12;8.95;;;4.57;;
69890;SDS011;57170;43.964;21.262;2023-05-10T11:01:08;8.88;;;4.15;;
69890;SDS011;57170;43.964;21.262;2023-05-10T11:03:35;6.20;;;4.28;;
69890;SDS011;57170;43.964;21.262;2023-05-10T11:06:01;6.15;;;4.53;;
69890;SDS011;57170;43.964;21.262;2023-05-10T11:16:40;5.43;;;4.03;;
69890;SDS011;57170;43.964;21.262;2023-05-10T11:19:01;5.38;;;4.10;;
69890;SDS011;57170;43.964;21.262;2023-05-10T11:21:31;8.30;;;4.60;;
69890;SDS011;57170;43.964;21.262;2023-05-10T11:23:58;5.75;;;3.85;;
69890;SDS011;57170;43.964;21.262;2023-05-10T11:26:25;6.78;;;4.65;;
69890;SDS011;57170;43.964;21.262;2023-05-10T11:28:52;5.82;;;4.28;;
69890;SDS011;57170;43.964;21.262;2023-05-10T11:31:23;6.43;;;4.30;;
69890;SDS011;57170;43.964;21.262;2023-05-10T11:33:55;6.53;;;4.30;;
69890;SDS011;57170;43.964;21.262;2023-05-10T11:36:29;5.72;;;3.90;;
69890;SDS011;57170;43.964;21.262;2023-05-10T11:38:56;5.00;;;4.07;;
69890;SDS011;57170;43.964;21.262;2023-05-10T11:41:22;8.93;;;5.20;;
69890;SDS011;57170;43.964;21.262;2023-05-10T11:43:49;7.65;;;4.68;;
69890;SDS011;57170;43.964;21.262;2023-05-10T11:46:16;4.43;;;3.72;;
69890;SDS011;57170;43.964;21.262;2023-05-10T11:48:45;5.00;;;3.95;;
69890;SDS011;57170;43.964;21.262;2023-05-10T11:51:12;7.75;;;4.60;;
69890;SDS011;57170;43.964;21.262;2023-05-10T11:53:38;6.28;;;4.47;;
69890;SDS011;57170;43.964;21.262;2023-05-10T11:56:08;6.68;;;4.43;;
69890;SDS011;57170;43.964;21.262;2023-05-10T11:58:35;8.02;;;4.15;;
69890;SDS011;57170;43.964;21.262;2023-05-10T12:01:02;4.95;;;4.35;;
69890;SDS011;57170;43.964;21.262;2023-05-10T12:03:28;4.78;;;4.28;;
69890;SDS011;57170;43.964;21.262;2023-05-10T12:05:55;6.75;;;3.97;;
69890;SDS011;57170;43.964;21.262;2023-05-10T12:08:23;4.93;;;3.95;;
69890;SDS011;57170;43.964;21.262;2023-05-10T12:10:50;9.23;;;3.72;;
69890;SDS011;57170;43.964;21.262;2023-05-10T12:13:16;8.85;;;4.45;;
69890;SDS011;57170;43.964;21.262;2023-05-10T12:15:42;6.68;;;3.95;;
69890;SDS011;57170;43.964;21.262;2023-05-10T12:18:09;7.78;;;3.53;;
69890;SDS011;57170;43.964;21.262;2023-05-10T12:20:36;7.00;;;4.45;;
69890;SDS011;57170;43.964;21.262;2023-05-10T12:23:02;5.28;;;4.10;;
69890;SDS011;57170;43.964;21.262;2023-05-10T12:25:30;9.50;;;4.68;;
69890;SDS011;57170;43.964;21.262;2023-05-10T12:27:58;6.65;;;5.25;;
69890;SDS011;57170;43.964;21.262;2023-05-10T12:30:27;9.20;;;5.20;;
69890;SDS011;57170;43.964;21.262;2023-05-10T12:32:53;8.88;;;5.43;;
69890;SDS011;57170;43.964;21.262;2023-05-10T12:35:20;9.45;;;4.15;;
69890;SDS011;57170;43.964;21.262;2023-05-10T12:37:47;7.65;;;5.30;;
69890;SDS011;57170;43.964;21.262;2023-05-10T12:40:13;6.60;;;4.85;;
69890;SDS011;57170;43.964;21.262;2023-05-10T12:42:39;7.07;;;4.28;;
69890;SDS011;57170;43.964;21.262;2023-05-10T12:45:06;5.15;;;4.15;;
69890;SDS011;57170;43.964;21.262;2023-05-10T12:47:32;13.35;;;4.30;;
69890;SDS011;57170;43.964;21.262;2023-05-10T12:49:59;6.95;;;4.47;;
69890;SDS011;57170;43.964;21.262;2023-05-10T12:52:26;5.35;;;3.63;;
69890;SDS011;57170;43.964;21.262;2023-05-10T12:54:52;5.80;;;4.20;;
69890;SDS011;57170;43.964;21.262;2023-05-10T12:57:19;5.22;;;4.53;;
69890;SDS011;57170;43.964;21.262;2023-05-10T12:59:45;6.53;;;4.07;;
69890;SDS011;57170;43.964;21.262;2023-05-10T13:02:12;6.97;;;4.43;;
69890;SDS011;57170;43.964;21.262;2023-05-10T13:04:39;6.00;;;4.13;;
69890;SDS011;57170;43.964;21.262;2023-05-10T13:07:09;6.50;;;4.55;;
69890;SDS011;57170;43.964;21.262;2023-05-10T13:09:35;8.15;;;4.82;;
69890;SDS011;57170;43.964;21.262;2023-05-10T13:12:01;7.15;;;4.45;;
69890;SDS011;57170;43.964;21.262;2023-05-10T13:14:29;7.57;;;4.90;;
69890;SDS011;57170;43.964;21.262;2023-05-10T13:16:55;7.97;;;4.68;;
69890;SDS011;57170;43.964;21.262;2023-05-10T13:19:21;6.88;;;5.57;;
69890;SDS011;57170;43.964;21.262;2023-05-10T13:21:47;9.05;;;5.35;;
69890;SDS011;57170;43.964;21.262;2023-05-10T13:24:13;7.68;;;5.45;;
69890;SDS011;57170;43.964;21.262;2023-05-10T13:26:40;8.00;;;5.65;;
69890;SDS011;57170;43.964;21.262;2023-05-10T13:29:06;8.10;;;5.95;;
69890;SDS011;57170;43.964;21.262;2023-05-10T13:31:33;8.48;;;6.60;;
69890;SDS011;57170;43.964;21.262;2023-05-10T13:33:59;7.00;;;6.10;;
69890;SDS011;57170;43.964;21.262;2023-05-10T13:36:25;7.78;;;6.38;;
69890;SDS011;57170;43.964;21.262;2023-05-10T13:38:51;7.80;;;6.53;;
69890;SDS011;57170;43.964;21.262;2023-05-10T13:41:17;6.90;;;6.20;;
69890;SDS011;57170;43.964;21.262;2023-05-10T13:43:44;7.22;;;6.05;;
69890;SDS011;57170;43.964;21.262;2023-05-10T13:46:10;7.57;;;6.15;;
69890;SDS011;57170;43.964;21.262;2023-05-10T13:48:36;11.30;;;6.13;;
69890;SDS011;57170;43.964;21.262;2023-05-10T13:51:02;10.70;;;6.18;;
69890;SDS011;57170;43.964;21.262;2023-05-10T13:53:29;12.35;;;6.30;;
69890;SDS011;57170;43.964;21.262;2023-05-10T13:55:55;9.05;;;5.75;;
69890;SDS011;57170;43.964;21.262;2023-05-10T13:58:21;6.30;;;5.30;;
69890;SDS011;57170;43.964;21.262;2023-05-10T14:00:47;9.07;;;5.60;;
69890;SDS011;57170;43.964;21.262;2023-05-10T14:03:13;9.80;;;7.13;;
69890;SDS011;57170;43.964;21.262;2023-05-10T14:05:39;6.57;;;5.40;;
69890;SDS011;57170;43.964;21.262;2023-05-10T14:08:05;6.65;;;5.65;;
69890;SDS011;57170;43.964;21.262;2023-05-10T14:10:32;7.95;;;5.85;;
69890;SDS011;57170;43.964;21.262;2023-05-10T14:12:58;5.97;;;4.47;;
69890;SDS011;57170;43.964;21.262;2023-05-10T14:15:24;7.00;;;5.85;;
69890;SDS011;57170;43.964;21.262;2023-05-10T14:17:50;7.93;;;5.03;;
69890;SDS011;57170;43.964;21.262;2023-05-10T14:20:17;6.22;;;5.18;;
69890;SDS011;57170;43.964;21.262;2023-05-10T14:22:43;7.82;;;5.55;;
69890;SDS011;57170;43.964;21.262;2023-05-10T14:25:09;5.82;;;5.05;;
69890;SDS011;57170;43.964;21.262;2023-05-10T14:27:35;8.13;;;5.25;;
69890;SDS011;57170;43.964;21.262;2023-05-10T14:30:01;7.28;;;5.53;;
69890;SDS011;57170;43.964;21.262;2023-05-10T14:32:27;7.65;;;5.32;;
69890;SDS011;57170;43.964;21.262;2023-05-10T14:34:53;6.32;;;5.28;;
69890;SDS011;57170;43.964;21.262;2023-05-10T14:37:20;7.47;;;5.40;;
69890;SDS011;57170;43.964;21.262;2023-05-10T14:39:46;11.48;;;6.18;;
69890;SDS011;57170;43.964;21.262;2023-05-10T14:42:12;8.55;;;5.30;;
69890;SDS011;57170;43.964;21.262;2023-05-10T14:44:38;7.03;;;5.43;;
69890;SDS011;57170;43.964;21.262;2023-05-10T14:47:04;6.10;;;5.30;;
69890;SDS011;57170;43.964;21.262;2023-05-10T14:49:31;8.38;;;5.20;;
69890;SDS011;57170;43.964;21.262;2023-05-10T14:51:57;7.68;;;6.03;;
69890;SDS011;57170;43.964;21.262;2023-05-10T14:54:23;13.93;;;5.45;;
69890;SDS011;57170;43.964;21.262;2023-05-10T14:56:49;8.18;;;6.05;;
69890;SDS011;57170;43.964;21.262;2023-05-10T14:59:15;12.15;;;5.78;;